createdAt,value
2022-12-20T00:01:26.223Z,4.50
2022-12-20T00:03:54.423Z,4.00
2022-12-20T00:06:21.521Z,4.88
2022-12-20T00:08:53.659Z,4.45
2022-12-20T00:11:20.226Z,4.25
2022-12-20T00:13:47.611Z,4.75
2022-12-20T00:16:17.393Z,4.43
2022-12-20T00:18:45.045Z,4.63
2022-12-20T00:21:13.783Z,4.77
2022-12-20T00:23:41.090Z,4.63
2022-12-20T00:26:10.220Z,4.40
2022-12-20T00:28:37.545Z,5.00
2022-12-20T00:31:05.495Z,3.92
2022-12-20T00:33:33.377Z,3.53
2022-12-20T00:35:59.978Z,4.43
2022-12-20T00:38:26.894Z,4.70
2022-12-20T00:41:12.994Z,4.72
2022-12-20T00:43:40.345Z,4.45
2022-12-20T00:46:08.803Z,4.40
2022-12-20T00:48:35.870Z,3.85
2022-12-20T00:51:13.134Z,3.83
2022-12-20T00:53:40.036Z,3.72
2022-12-20T00:56:07.644Z,3.55
2022-12-20T00:58:36.479Z,3.77
2022-12-20T01:01:04.175Z,4.13
2022-12-20T01:03:30.882Z,3.30
2022-12-20T01:06:01.590Z,3.85
2022-12-20T01:08:30.198Z,4.00
2022-12-20T01:13:35.344Z,3.97
2022-12-20T01:16:11.105Z,4.05
2022-12-20T01:18:37.785Z,3.40
2022-12-20T01:21:06.432Z,3.70
2022-12-20T01:23:33.192Z,3.28
2022-12-20T01:26:01.031Z,4.13
2022-12-20T01:28:28.355Z,3.60
2022-12-20T01:30:54.962Z,4.05
2022-12-20T01:33:21.685Z,3.67
2022-12-20T01:36:01.988Z,3.60
2022-12-20T01:38:28.827Z,3.30
2022-12-20T01:40:57.530Z,3.30
2022-12-20T01:43:25.589Z,3.63
2022-12-20T01:45:52.821Z,3.42
2022-12-20T01:48:23.497Z,3.95
2022-12-20T01:50:50.415Z,3.47
2022-12-20T01:53:18.334Z,3.45
2022-12-20T01:55:47.756Z,3.30
2022-12-20T01:58:15.114Z,3.15
2022-12-20T02:00:42.069Z,3.28
2022-12-20T02:03:12.630Z,3.40
2022-12-20T02:05:47.950Z,3.22
2022-12-20T02:08:17.518Z,2.97
2022-12-20T02:11:07.984Z,3.53
2022-12-20T02:14:01.671Z,3.30
2022-12-20T02:16:30.571Z,3.40
2022-12-20T02:19:42.138Z,2.92
2022-12-20T02:22:51.669Z,3.17
2022-12-20T02:25:55.887Z,3.17
2022-12-20T02:28:31.842Z,3.20
2022-12-20T02:31:00.741Z,3.25
2022-12-20T02:35:53.753Z,3.65
2022-12-20T02:38:32.845Z,3.15
2022-12-20T02:41:12.363Z,3.22
2022-12-20T02:43:59.896Z,3.30
2022-12-20T02:46:26.918Z,3.42
2022-12-20T02:48:56.742Z,3.10
2022-12-20T02:51:23.884Z,3.20
2022-12-20T02:53:50.604Z,3.35
2022-12-20T02:56:28.113Z,3.25
2022-12-20T02:59:25.409Z,3.05
2022-12-20T03:01:55.260Z,3.70
2022-12-20T03:04:27.148Z,2.85
2022-12-20T03:07:00.772Z,3.15
2022-12-20T03:09:28.147Z,3.00
2022-12-20T03:11:54.839Z,2.95
2022-12-20T03:14:22.173Z,2.85
2022-12-20T03:16:48.939Z,3.08
2022-12-20T03:19:15.563Z,2.70
2022-12-20T03:21:42.521Z,2.33
2022-12-20T03:24:11.139Z,2.78
2022-12-20T03:29:04.894Z,2.60
2022-12-20T03:31:31.635Z,2.53
2022-12-20T03:33:58.210Z,2.67
2022-12-20T03:36:25.290Z,2.42
2022-12-20T03:38:52.889Z,2.58
2022-12-20T03:41:21.863Z,2.70
2022-12-20T03:43:49.205Z,2.70
2022-12-20T03:46:16.232Z,2.60
2022-12-20T03:48:43.435Z,2.40
2022-12-20T03:51:10.451Z,2.65
2022-12-20T03:53:36.981Z,2.63
2022-12-20T03:56:03.618Z,2.38
2022-12-20T03:58:30.182Z,2.00
2022-12-20T04:00:57.764Z,2.08
2022-12-20T04:03:24.383Z,2.45
2022-12-20T04:05:50.946Z,2.95
2022-12-20T04:08:17.503Z,2.42
2022-12-20T04:11:02.599Z,2.67
2022-12-20T04:13:29.135Z,2.50
2022-12-20T04:16:00.336Z,3.05
2022-12-20T04:18:27.672Z,2.63
2022-12-20T04:20:54.862Z,2.50
2022-12-20T04:23:21.501Z,2.28
2022-12-20T04:25:48.042Z,3.47
2022-12-20T04:28:14.646Z,2.20
2022-12-20T04:30:49.859Z,2.72
2022-12-20T04:33:16.476Z,2.88
2022-12-20T04:35:43.183Z,2.50
2022-12-20T04:38:09.828Z,2.90
2022-12-20T04:40:36.381Z,2.90
2022-12-20T04:43:02.987Z,2.67
2022-12-20T04:45:29.575Z,2.97
2022-12-20T04:47:56.163Z,2.70
2022-12-20T04:50:22.913Z,2.90
2022-12-20T04:53:07.960Z,2.85
2022-12-20T04:55:38.644Z,3.45
2022-12-20T04:58:07.822Z,2.75
2022-12-20T05:00:34.772Z,3.20
2022-12-20T05:03:01.571Z,3.65
2022-12-20T05:05:28.259Z,3.22
2022-12-20T05:07:55.523Z,3.30
2022-12-20T05:10:22.111Z,3.25
2022-12-20T05:12:48.663Z,2.78
2022-12-20T05:15:15.452Z,3.28
2022-12-20T05:17:41.998Z,3.15
2022-12-20T05:20:09.048Z,3.38
2022-12-20T05:22:54.208Z,3.00
2022-12-20T05:25:39.418Z,3.50
2022-12-20T05:28:06.089Z,2.78
2022-12-20T05:30:32.649Z,3.15
2022-12-20T05:32:59.306Z,3.08
2022-12-20T05:35:25.888Z,3.05
2022-12-20T05:37:52.639Z,3.40
2022-12-20T05:40:19.218Z,3.65
2022-12-20T05:42:45.768Z,3.30
2022-12-20T05:45:12.390Z,3.65
2022-12-20T05:47:39.107Z,3.35
2022-12-20T05:50:06.377Z,3.50
2022-12-20T05:52:33.215Z,2.70
2022-12-20T05:55:00.002Z,3.30
2022-12-20T05:57:26.566Z,2.95
2022-12-20T05:59:53.224Z,2.92
2022-12-20T06:02:19.921Z,2.97
2022-12-20T06:04:46.580Z,2.83
2022-12-20T06:07:13.388Z,2.35
2022-12-20T06:09:39.981Z,2.85
2022-12-20T06:12:06.660Z,3.42
2022-12-20T06:14:33.229Z,3.00
2022-12-20T06:16:59.810Z,3.05
2022-12-20T06:19:26.405Z,3.67
2022-12-20T06:21:53.182Z,3.38
2022-12-20T06:24:19.801Z,3.60
2022-12-20T06:26:46.720Z,3.38
2022-12-20T06:29:17.360Z,3.00
2022-12-20T06:31:44.740Z,3.10
2022-12-20T06:34:11.407Z,3.47
2022-12-20T06:36:38.000Z,3.20
2022-12-20T06:39:09.468Z,3.60
2022-12-20T06:41:37.114Z,3.15
2022-12-20T06:44:04.114Z,3.58
2022-12-20T06:46:30.766Z,3.63
2022-12-20T06:48:57.508Z,3.17
2022-12-20T06:51:24.458Z,3.30
2022-12-20T06:53:51.156Z,3.40
2022-12-20T06:56:18.951Z,3.22
2022-12-20T06:58:46.837Z,4.22
2022-12-20T07:01:13.474Z,3.75
2022-12-20T07:03:40.096Z,3.50
2022-12-20T07:06:06.779Z,3.22
2022-12-20T07:08:33.380Z,3.25
2022-12-20T07:11:09.208Z,3.10
2022-12-20T07:13:35.817Z,3.28
2022-12-20T07:16:03.358Z,3.33
2022-12-20T07:18:30.436Z,3.28
2022-12-20T07:21:05.431Z,3.60
2022-12-20T07:23:32.942Z,3.35
2022-12-20T07:26:01.144Z,3.50
2022-12-20T07:28:28.188Z,3.50
2022-12-20T07:30:55.081Z,3.15
2022-12-20T07:33:21.676Z,3.65
2022-12-20T07:35:52.574Z,3.33
2022-12-20T07:38:21.114Z,3.35
2022-12-20T07:40:47.711Z,3.60
2022-12-20T07:43:14.284Z,3.55
2022-12-20T07:45:41.038Z,3.40
2022-12-20T07:48:13.738Z,3.40
2022-12-20T07:50:42.348Z,3.15
2022-12-20T07:53:10.037Z,3.70
2022-12-20T07:55:37.512Z,3.13
2022-12-20T07:58:06.906Z,3.65
2022-12-20T08:00:33.848Z,3.25
2022-12-20T08:03:23.486Z,3.40
2022-12-20T08:05:52.895Z,3.38
2022-12-20T08:08:20.128Z,3.17
2022-12-20T08:10:46.944Z,3.47
2022-12-20T08:13:13.596Z,3.40
2022-12-20T08:15:40.256Z,3.45
2022-12-20T08:18:06.957Z,3.60
2022-12-20T08:20:33.873Z,3.55
2022-12-20T08:23:03.346Z,3.67
2022-12-20T08:25:30.899Z,4.00
2022-12-20T08:28:02.017Z,3.63
2022-12-20T08:30:28.952Z,3.40
2022-12-20T08:32:56.301Z,4.32
2022-12-20T08:35:23.282Z,3.83
2022-12-20T08:37:53.367Z,3.58
2022-12-20T08:40:20.967Z,3.50
2022-12-20T08:42:47.671Z,3.85
2022-12-20T08:45:14.310Z,3.72
2022-12-20T08:47:41.360Z,3.85
2022-12-20T08:50:08.463Z,4.00
2022-12-20T08:52:35.064Z,4.45
2022-12-20T08:55:02.344Z,4.15
2022-12-20T08:57:29.856Z,4.35
2022-12-20T08:59:56.405Z,4.60
2022-12-20T09:02:23.267Z,5.25
2022-12-20T09:04:49.998Z,4.70
2022-12-20T09:07:16.560Z,4.60
2022-12-20T09:09:43.177Z,5.20
2022-12-20T09:12:09.770Z,5.00
2022-12-20T09:14:36.331Z,5.40
2022-12-20T09:17:02.923Z,4.97
2022-12-20T09:19:29.567Z,4.90
2022-12-20T09:21:56.287Z,5.68
2022-12-20T09:24:22.876Z,5.03
2022-12-20T09:26:50.291Z,5.75
2022-12-20T09:29:25.866Z,5.35
2022-12-20T09:31:55.101Z,5.57
2022-12-20T09:34:21.675Z,5.30
2022-12-20T09:36:48.257Z,5.35
2022-12-20T09:39:14.854Z,5.97
2022-12-20T09:41:43.169Z,5.93
2022-12-20T09:44:17.297Z,5.90
2022-12-20T09:46:45.015Z,5.78
2022-12-20T09:49:17.687Z,5.93
2022-12-20T09:52:22.961Z,5.18
2022-12-20T09:55:07.898Z,5.75
2022-12-20T09:57:59.055Z,5.43
2022-12-20T10:00:25.848Z,5.93
2022-12-20T10:03:08.893Z,5.63
2022-12-20T10:05:47.326Z,5.53
2022-12-20T10:08:53.022Z,5.60
2022-12-20T10:11:55.086Z,4.88
2022-12-20T10:14:34.469Z,4.95
2022-12-20T10:17:05.796Z,4.95
2022-12-20T10:19:35.446Z,5.60
2022-12-20T10:22:04.941Z,5.13
2022-12-20T10:24:33.428Z,5.30
2022-12-20T10:27:18.526Z,5.03
2022-12-20T10:29:46.808Z,4.00
2022-12-20T10:32:19.583Z,3.30
2022-12-20T10:35:10.953Z,2.90
2022-12-20T10:37:41.390Z,3.20
2022-12-20T10:40:46.410Z,2.88
2022-12-20T10:43:19.644Z,2.75
2022-12-20T10:45:59.269Z,2.70
2022-12-20T10:48:33.024Z,2.38
2022-12-20T10:51:04.284Z,2.20
2022-12-20T10:53:32.347Z,2.70
2022-12-20T10:56:18.278Z,2.65
2022-12-20T10:58:55.084Z,2.85
2022-12-20T11:01:23.324Z,2.70
2022-12-20T11:04:00.719Z,2.67
2022-12-20T11:06:40.122Z,2.55
2022-12-20T11:09:34.622Z,2.25
2022-12-20T11:12:04.945Z,2.65
2022-12-20T11:14:38.650Z,2.05
2022-12-20T11:17:34.068Z,2.42
2022-12-20T11:20:22.335Z,2.42
2022-12-20T11:23:07.667Z,2.78
2022-12-20T11:25:57.220Z,2.42
2022-12-20T11:28:29.758Z,2.70
2022-12-20T11:31:15.809Z,2.42
2022-12-20T11:33:51.661Z,2.60
2022-12-20T11:37:08.990Z,2.60
2022-12-20T11:40:20.348Z,2.65
2022-12-20T11:43:16.200Z,2.00
2022-12-20T11:46:00.715Z,2.03
2022-12-20T11:48:48.894Z,2.20
2022-12-20T11:51:26.612Z,2.53
2022-12-20T11:54:01.669Z,2.70
2022-12-20T11:56:43.493Z,2.13
2022-12-20T11:59:43.139Z,2.35
2022-12-20T12:02:21.262Z,2.60
2022-12-20T12:05:14.545Z,2.33
2022-12-20T12:07:41.735Z,2.30
2022-12-20T12:10:20.263Z,2.17
2022-12-20T12:15:33.549Z,2.33
2022-12-20T12:18:03.035Z,2.28
2022-12-20T12:20:44.902Z,2.42
2022-12-20T12:23:49.927Z,2.42
2022-12-20T12:26:27.464Z,2.75
2022-12-20T12:29:00.111Z,2.03
2022-12-20T12:31:35.473Z,2.50
2022-12-20T12:34:11.131Z,2.05
2022-12-20T12:37:19.155Z,2.05
2022-12-20T12:40:00.932Z,2.42
2022-12-20T12:42:48.850Z,2.65
2022-12-20T12:45:22.064Z,2.13
2022-12-20T12:48:17.577Z,2.63
2022-12-20T12:50:47.280Z,2.20
2022-12-20T12:53:42.160Z,2.40
2022-12-20T12:56:45.263Z,2.83
2022-12-20T12:59:12.714Z,2.65
2022-12-20T13:01:54.829Z,2.90
2022-12-20T13:04:47.997Z,2.30
2022-12-20T13:07:44.187Z,2.45
2022-12-20T13:10:18.286Z,2.45
2022-12-20T13:12:58.834Z,2.47
2022-12-20T13:15:25.379Z,2.60
2022-12-20T13:17:52.371Z,2.40
2022-12-20T13:20:29.806Z,2.25
2022-12-20T13:23:10.457Z,2.50
2022-12-20T13:25:38.173Z,2.47
2022-12-20T13:28:17.146Z,2.50
2022-12-20T13:30:45.059Z,2.10
2022-12-20T13:33:38.672Z,2.15
2022-12-20T13:36:31.314Z,2.20
2022-12-20T13:38:59.526Z,2.28
2022-12-20T13:41:35.849Z,2.25
2022-12-20T13:44:14.649Z,2.78
2022-12-20T13:46:52.866Z,2.60
2022-12-20T13:49:26.568Z,2.45
2022-12-20T13:52:11.476Z,2.55
2022-12-20T13:54:42.604Z,2.75
2022-12-20T13:57:16.074Z,3.00
2022-12-20T13:59:46.787Z,2.40
2022-12-20T14:02:25.104Z,2.90
2022-12-20T14:07:30.131Z,2.70
2022-12-20T14:10:00.113Z,2.83
2022-12-20T14:12:33.010Z,2.65
2022-12-20T14:15:03.484Z,2.92
2022-12-20T14:17:32.335Z,2.78
2022-12-20T14:20:16.115Z,2.80
2022-12-20T14:22:55.850Z,2.72
2022-12-20T14:25:48.659Z,2.70
2022-12-20T14:28:33.469Z,2.47
2022-12-20T14:31:01.376Z,2.70
2022-12-20T14:33:37.278Z,2.40
2022-12-20T14:36:34.408Z,2.38
2022-12-20T14:39:01.144Z,2.42
2022-12-20T14:41:40.571Z,2.67
2022-12-20T14:44:07.759Z,2.35
2022-12-20T14:46:35.885Z,2.70
2022-12-20T14:49:32.965Z,2.75
2022-12-20T14:52:11.797Z,2.88
2022-12-20T14:57:36.867Z,2.58
2022-12-20T15:00:14.975Z,3.03
2022-12-20T15:02:43.131Z,2.55
2022-12-20T15:05:39.407Z,2.65
2022-12-20T15:08:15.312Z,2.75
2022-12-20T15:10:45.267Z,2.28
2022-12-20T15:13:14.450Z,2.40
2022-12-20T15:15:41.282Z,2.13
2022-12-20T15:18:15.613Z,2.40
2022-12-20T15:20:43.757Z,2.50
2022-12-20T15:23:14.926Z,2.78
2022-12-20T15:25:43.989Z,2.30
2022-12-20T15:28:18.066Z,3.05
2022-12-20T15:30:46.319Z,3.22
2022-12-20T15:33:16.959Z,2.65
2022-12-20T15:35:43.874Z,3.00
2022-12-20T15:38:29.684Z,3.30
2022-12-20T15:41:14.191Z,2.72
2022-12-20T15:43:40.940Z,3.30
2022-12-20T15:46:07.696Z,3.05
2022-12-20T15:48:34.370Z,3.40
2022-12-20T15:51:01.321Z,3.95
2022-12-20T15:53:33.072Z,3.50
2022-12-20T15:55:59.955Z,3.53
2022-12-20T15:58:27.137Z,3.90
2022-12-20T16:00:55.147Z,3.83
2022-12-20T16:03:23.964Z,4.53
2022-12-20T16:05:53.852Z,4.95
2022-12-20T16:08:20.514Z,4.78
2022-12-20T16:10:47.624Z,5.45
2022-12-20T16:13:20.894Z,5.45
2022-12-20T16:15:48.010Z,5.47
2022-12-20T16:18:14.990Z,5.85
2022-12-20T16:20:41.611Z,6.90
2022-12-20T16:23:19.795Z,5.45
2022-12-20T16:25:46.715Z,4.97
2022-12-20T16:28:13.330Z,5.72
2022-12-20T16:30:40.082Z,5.88
2022-12-20T16:33:06.761Z,5.85
2022-12-20T16:35:37.299Z,5.20
2022-12-20T16:38:04.206Z,5.43
2022-12-20T16:40:32.949Z,5.82
2022-12-20T16:43:00.449Z,5.53
2022-12-20T16:45:29.499Z,6.00
2022-12-20T16:47:56.501Z,6.13
2022-12-20T16:50:25.278Z,5.78
2022-12-20T16:52:52.039Z,5.68
2022-12-20T16:55:22.236Z,5.63
2022-12-20T16:57:49.031Z,7.15
2022-12-20T17:00:22.016Z,6.90
2022-12-20T17:02:49.333Z,6.47
2022-12-20T17:05:30.755Z,6.30
2022-12-20T17:07:58.132Z,6.57
2022-12-20T17:10:25.890Z,6.90
2022-12-20T17:12:52.927Z,7.38
2022-12-20T17:15:23.389Z,6.75
2022-12-20T17:17:51.107Z,6.78
2022-12-20T17:20:19.426Z,6.97
2022-12-20T17:22:49.757Z,6.43
2022-12-20T17:25:30.521Z,6.20
2022-12-20T17:27:57.163Z,7.03
2022-12-20T17:30:25.236Z,6.25
2022-12-20T17:32:53.492Z,6.45
2022-12-20T17:35:32.638Z,6.57
2022-12-20T17:38:00.564Z,6.65
2022-12-20T17:40:28.305Z,7.55
2022-12-20T17:42:54.923Z,6.53
2022-12-20T17:45:23.299Z,7.05
2022-12-20T17:47:49.903Z,6.43
2022-12-20T17:50:18.065Z,7.15
2022-12-20T17:52:45.970Z,6.00
2022-12-20T17:55:24.330Z,6.45
2022-12-20T17:57:52.029Z,6.75
2022-12-20T18:00:36.612Z,6.43
2022-12-20T18:03:05.570Z,6.00
2022-12-20T18:05:32.263Z,6.53
2022-12-20T18:07:58.925Z,6.22
2022-12-20T18:10:25.568Z,5.53
2022-12-20T18:12:52.207Z,6.03
2022-12-20T18:15:20.242Z,5.82
2022-12-20T18:17:47.084Z,6.45
2022-12-20T18:20:15.799Z,6.43
2022-12-20T18:22:42.408Z,6.82
2022-12-20T18:25:09.754Z,6.18
2022-12-20T18:27:41.283Z,6.65
2022-12-20T18:30:09.640Z,7.72
2022-12-20T18:32:36.431Z,6.45
2022-12-20T18:35:03.226Z,7.05
2022-12-20T18:37:29.857Z,7.00
2022-12-20T18:39:56.564Z,6.25
2022-12-20T18:42:23.166Z,7.07
2022-12-20T18:44:50.165Z,7.28
2022-12-20T18:47:16.752Z,6.57
2022-12-20T18:49:43.303Z,6.53
2022-12-20T18:52:09.919Z,7.68
2022-12-20T18:54:36.745Z,7.15
2022-12-20T18:57:05.958Z,6.28
2022-12-20T18:59:33.107Z,6.95
2022-12-20T19:02:00.134Z,6.40
2022-12-20T19:04:26.856Z,6.60
2022-12-20T19:06:53.735Z,6.82
2022-12-20T19:09:20.634Z,6.60
2022-12-20T19:11:51.581Z,6.40
2022-12-20T19:14:21.321Z,6.43
2022-12-20T19:16:49.832Z,6.70
2022-12-20T19:21:43.035Z,6.32
2022-12-20T19:24:10.739Z,6.13
2022-12-20T19:26:37.819Z,6.20
2022-12-20T19:29:05.388Z,6.35
2022-12-20T19:31:33.602Z,6.13
2022-12-20T19:34:10.165Z,6.18
2022-12-20T19:36:42.185Z,6.03
2022-12-20T19:39:16.665Z,7.38
2022-12-20T19:41:47.393Z,6.05
2022-12-20T19:44:22.004Z,6.40
2022-12-20T19:46:48.604Z,5.78
2022-12-20T19:49:15.159Z,6.00
2022-12-20T19:51:41.811Z,6.05
2022-12-20T19:54:09.613Z,5.55
2022-12-20T19:56:36.249Z,6.05
2022-12-20T19:59:03.493Z,5.55
2022-12-20T20:01:30.237Z,5.72
2022-12-20T20:03:59.201Z,5.75
2022-12-20T20:06:26.933Z,4.82
2022-12-20T20:08:53.590Z,5.20
2022-12-20T20:11:21.102Z,5.20
2022-12-20T20:13:47.958Z,5.55
2022-12-20T20:16:20.225Z,6.15
2022-12-20T20:18:49.120Z,6.18
2022-12-20T20:21:19.096Z,5.95
2022-12-20T20:23:45.685Z,6.30
2022-12-20T20:26:15.438Z,6.07
2022-12-20T20:28:44.951Z,5.60
2022-12-20T20:31:16.174Z,5.80
2022-12-20T20:33:43.230Z,6.05
2022-12-20T20:36:13.350Z,7.03
2022-12-20T20:38:40.191Z,6.30
2022-12-20T20:41:06.757Z,5.63
2022-12-20T20:43:37.758Z,5.63
2022-12-20T20:46:06.253Z,6.70
2022-12-20T20:48:33.065Z,6.57
2022-12-20T20:50:59.901Z,6.25
2022-12-20T20:53:32.988Z,6.32
2022-12-20T20:55:59.846Z,6.68
2022-12-20T20:58:26.551Z,6.57
2022-12-20T21:00:57.241Z,6.40
2022-12-20T21:03:23.816Z,7.68
2022-12-20T21:06:32.874Z,7.35
2022-12-20T21:08:36.966Z,6.80
2022-12-20T21:11:07.258Z,8.13
2022-12-20T21:13:34.307Z,7.97
2022-12-20T21:16:12.822Z,8.15
2022-12-20T21:18:39.509Z,9.25
2022-12-20T21:21:08.395Z,8.27
2022-12-20T21:23:35.085Z,8.93
2022-12-20T21:26:01.789Z,9.20
2022-12-20T21:28:28.433Z,8.13
2022-12-20T21:31:00.053Z,9.55
2022-12-20T21:33:27.204Z,8.70
2022-12-20T21:36:05.702Z,9.70
2022-12-20T21:41:07.943Z,8.60
2022-12-20T21:43:35.091Z,10.15
2022-12-20T21:46:01.826Z,8.65
2022-12-20T21:48:29.983Z,10.13
2022-12-20T21:51:11.332Z,9.27
2022-12-20T21:53:49.342Z,9.05
2022-12-20T21:56:16.358Z,9.50
2022-12-20T21:58:42.996Z,10.02
2022-12-20T22:01:09.983Z,9.15
2022-12-20T22:03:37.593Z,9.45
2022-12-20T22:06:04.855Z,11.30
2022-12-20T22:08:32.328Z,10.65
2022-12-20T22:11:18.342Z,10.25
2022-12-20T22:13:46.019Z,9.85
2022-12-20T22:16:18.132Z,10.53
2022-12-20T22:18:50.812Z,10.32
2022-12-20T22:21:18.961Z,10.48
2022-12-20T22:23:45.532Z,11.48
2022-12-20T22:26:14.589Z,11.57
2022-12-20T22:28:53.397Z,12.18
2022-12-20T22:31:20.510Z,13.00
2022-12-20T22:33:47.139Z,13.55
2022-12-20T22:36:15.452Z,14.88
2022-12-20T22:38:43.430Z,13.85
2022-12-20T22:41:30.653Z,14.73
2022-12-20T22:43:58.592Z,13.95
2022-12-20T22:46:25.767Z,13.77
2022-12-20T22:48:52.431Z,14.40
2022-12-20T22:51:21.004Z,14.95
2022-12-20T22:56:16.374Z,16.45
2022-12-20T22:58:43.151Z,16.02
2022-12-20T23:01:12.579Z,15.40
2022-12-20T23:03:39.504Z,16.08
2022-12-20T23:06:07.532Z,15.90
2022-12-20T23:08:36.221Z,16.13
2022-12-20T23:11:22.473Z,16.85
2022-12-20T23:14:07.796Z,15.95
2022-12-20T23:16:34.397Z,15.32
2022-12-20T23:19:02.263Z,15.40
2022-12-20T23:21:48.136Z,16.70
2022-12-20T23:24:15.150Z,18.25
2022-12-20T23:26:42.381Z,17.85
2022-12-20T23:29:09.676Z,17.73
2022-12-20T23:31:36.482Z,18.85
2022-12-20T23:34:03.737Z,18.25
2022-12-20T23:36:30.404Z,17.83
2022-12-20T23:38:56.967Z,19.20
2022-12-20T23:41:23.763Z,18.33
2022-12-20T23:43:50.416Z,17.25
2022-12-20T23:46:18.847Z,17.90
2022-12-20T23:48:45.705Z,17.52
2022-12-20T23:51:12.444Z,17.38
2022-12-20T23:53:39.571Z,16.92
2022-12-20T23:56:15.442Z,17.52
2022-12-20T23:58:42.941Z,15.57
